createdAt,value
2017-11-15T00:00:54.939Z,145.0
2017-11-15T00:10:55.698Z,142.6
2017-11-15T00:20:55.692Z,161.1
2017-11-15T00:30:55.470Z,156.6
2017-11-15T00:40:55.517Z,160.9
2017-11-15T00:50:55.677Z,135.2
2017-11-15T01:00:55.354Z,135.2
2017-11-15T01:10:55.117Z,128.4
2017-11-15T01:20:55.193Z,122.2
2017-11-15T01:30:55.040Z,130.4
2017-11-15T01:40:54.886Z,122.8
2017-11-15T01:50:55.693Z,132.2
2017-11-15T02:00:55.779Z,143.4
2017-11-15T02:10:55.757Z,147.5
2017-11-15T02:20:56.006Z,138.4
2017-11-15T02:30:54.766Z,128.7
2017-11-15T02:40:55.520Z,138.7
2017-11-15T02:50:55.249Z,128.5
2017-11-15T03:00:55.141Z,120.3
2017-11-15T03:10:55.176Z,127.2
2017-11-15T03:20:55.072Z,132.1
2017-11-15T03:30:54.815Z,120.3
2017-11-15T03:40:55.596Z,107.7
2017-11-15T03:50:55.334Z,130.9
2017-11-15T04:00:55.156Z,118.0
2017-11-15T04:10:54.996Z,115.3
2017-11-15T04:20:55.179Z,119.3
2017-11-15T04:30:54.921Z,119.9
2017-11-15T04:40:55.667Z,116.0
2017-11-15T04:50:55.991Z,128.7
2017-11-15T05:00:54.729Z,147.3
2017-11-15T05:10:55.479Z,160.0
2017-11-15T05:20:55.356Z,139.5
2017-11-15T05:30:55.212Z,129.7
2017-11-15T05:40:55.062Z,131.7
2017-11-15T05:50:54.794Z,101.9
2017-11-15T06:00:55.703Z,90.3
2017-11-15T06:10:55.753Z,78.5
2017-11-15T06:20:54.736Z,63.6
2017-11-15T06:30:55.591Z,54.4
2017-11-15T06:40:55.383Z,82.5
2017-11-15T06:50:55.100Z,62.7
2017-11-15T07:00:55.051Z,60.7
2017-11-15T07:10:55.015Z,67.8
2017-11-15T07:20:54.807Z,62.6
2017-11-15T07:30:55.710Z,53.8
2017-11-15T07:40:55.635Z,55.2
2017-11-15T07:50:55.263Z,68.8
2017-11-15T08:00:54.972Z,83.5
2017-11-15T08:10:55.106Z,90.6
2017-11-15T08:20:54.987Z,95.3
2017-11-15T08:30:54.761Z,95.7
2017-11-15T08:40:55.459Z,78.7
2017-11-15T08:50:55.177Z,75.0
2017-11-15T09:00:55.105Z,57.3
2017-11-15T09:10:55.065Z,57.9
2017-11-15T09:20:54.920Z,51.5
2017-11-15T09:30:56.032Z,40.8
2017-11-15T09:40:54.800Z,46.0
2017-11-15T09:50:55.523Z,43.1
2017-11-15T10:00:55.252Z,49.3
2017-11-15T10:10:55.206Z,43.7
2017-11-15T10:20:55.383Z,45.0
2017-11-15T10:30:55.731Z,43.1
2017-11-15T10:40:55.487Z,45.3
2017-11-15T10:50:55.608Z,50.6
2017-11-15T11:00:55.392Z,47.9
2017-11-15T11:10:55.418Z,42.2
2017-11-15T11:20:55.671Z,40.5
2017-11-15T11:30:55.874Z,40.8
2017-11-15T11:40:55.623Z,39.4
2017-11-15T11:50:55.321Z,41.5
2017-11-15T12:00:55.350Z,33.8
2017-11-15T12:10:55.134Z,35.5
2017-11-15T12:20:54.975Z,32.6
2017-11-15T12:30:54.716Z,28.3
2017-11-15T12:40:55.681Z,32.1
2017-11-15T12:50:55.357Z,33.5
2017-11-15T13:00:55.081Z,38.3
2017-11-15T13:10:54.830Z,29.4
2017-11-15T13:20:54.729Z,23.9
2017-11-15T13:30:55.528Z,25.6
2017-11-15T13:40:55.269Z,15.0
2017-11-15T13:50:55.022Z,20.2
2017-11-15T14:00:54.916Z,28.6
2017-11-15T14:10:55.669Z,26.2
2017-11-15T14:20:55.594Z,36.8
2017-11-15T14:30:55.498Z,33.8
2017-11-15T14:40:55.230Z,33.4
2017-11-15T14:50:54.994Z,57.5
2017-11-15T15:00:55.413Z,42.4
2017-11-15T15:10:55.616Z,32.3
2017-11-15T15:20:55.810Z,40.4
2017-11-15T15:30:55.467Z,49.8
2017-11-15T15:40:55.586Z,50.9
2017-11-15T15:50:56.115Z,54.4
2017-11-15T16:00:55.102Z,52.3
2017-11-15T16:10:54.785Z,45.3
2017-11-15T16:20:56.315Z,45.1
2017-11-15T16:30:55.058Z,79.9
2017-11-15T16:40:54.760Z,67.9
2017-11-15T16:50:55.534Z,51.7
2017-11-15T17:00:55.291Z,59.5
2017-11-15T17:10:55.029Z,90.0
2017-11-15T17:20:55.105Z,58.0
2017-11-15T17:30:55.279Z,48.0
2017-11-15T17:40:54.984Z,48.9
2017-11-15T17:50:54.841Z,55.8
2017-11-15T18:00:55.599Z,59.6
2017-11-15T18:10:56.589Z,63.9
2017-11-15T18:20:55.905Z,58.6
2017-11-15T18:30:55.721Z,58.0
2017-11-15T18:40:55.518Z,63.6
2017-11-15T18:50:55.475Z,62.4
2017-11-15T19:00:56.114Z,58.1
2017-11-15T19:10:54.858Z,71.6
2017-11-15T19:20:54.744Z,95.9
2017-11-15T19:30:55.835Z,104.8
2017-11-15T19:40:55.602Z,101.7
2017-11-15T19:50:55.395Z,79.2
2017-11-15T20:00:55.246Z,82.6
2017-11-15T20:10:55.756Z,105.6
2017-11-15T20:20:55.593Z,93.9
2017-11-15T20:30:55.359Z,82.4
2017-11-15T20:40:55.395Z,85.8
2017-11-15T20:50:55.608Z,84.3
2017-11-15T21:00:55.336Z,82.6
2017-11-15T21:10:55.096Z,89.7
2017-11-15T21:20:55.144Z,86.4
2017-11-15T21:30:54.888Z,99.3
2017-11-15T21:40:55.997Z,114.5
2017-11-15T21:50:54.756Z,146.6
2017-11-15T22:00:55.671Z,160.0
2017-11-15T22:10:55.398Z,166.0
2017-11-15T22:20:55.265Z,151.3
2017-11-15T22:30:54.989Z,155.1
2017-11-15T22:40:54.715Z,177.9
2017-11-15T22:50:55.872Z,179.7
2017-11-15T23:00:55.746Z,180.1
2017-11-15T23:10:55.490Z,186.8
2017-11-15T23:20:55.428Z,166.2
2017-11-15T23:30:55.129Z,160.0
2017-11-15T23:40:54.859Z,161.7
2017-11-15T23:50:55.552Z,157.3
